sensor_id;sensor_type;location;lat;lon;timestamp;pressure;altitude;pressure_sealevel;temperature;humidity
19783;BME280;10051;40.294;-3.754;2023-05-10T00:00:46;94474.44;;;22.59;31.85
19783;BME280;10051;40.294;-3.754;2023-05-10T00:03:11;94498.91;;;22.57;34.36
19783;BME280;10051;40.294;-3.754;2023-05-10T00:05:37;94486.94;;;22.07;37.11
19783;BME280;10051;40.294;-3.754;2023-05-10T00:08:03;94457.72;;;21.57;38.59
19783;BME280;10051;40.294;-3.754;2023-05-10T00:10:28;94490.19;;;21.56;39.94
19783;BME280;10051;40.294;-3.754;2023-05-10T00:12:54;94505.53;;;21.30;41.09
19783;BME280;10051;40.294;-3.754;2023-05-10T00:15:19;94426.78;;;20.62;41.78
19783;BME280;10051;40.294;-3.754;2023-05-10T00:17:45;94469.63;;;21.03;41.72
19783;BME280;10051;40.294;-3.754;2023-05-10T00:20:13;94494.66;;;21.10;42.33
19783;BME280;10051;40.294;-3.754;2023-05-10T00:22:39;94510.47;;;21.16;42.12
19783;BME280;10051;40.294;-3.754;2023-05-10T00:25:05;94495.41;;;21.23;41.93
19783;BME280;10051;40.294;-3.754;2023-05-10T00:27:31;94477.94;;;21.14;42.15
19783;BME280;10051;40.294;-3.754;2023-05-10T00:29:56;94472.66;;;20.89;42.77
19783;BME280;10051;40.294;-3.754;2023-05-10T00:32:22;94481.88;;;21.04;42.75
19783;BME280;10051;40.294;-3.754;2023-05-10T00:34:47;94489.53;;;21.18;42.37
19783;BME280;10051;40.294;-3.754;2023-05-10T00:37:13;94457.91;;;21.07;42.17
19783;BME280;10051;40.294;-3.754;2023-05-10T00:39:42;94465.19;;;21.35;41.79
19783;BME280;10051;40.294;-3.754;2023-05-10T00:42:07;94415.34;;;21.15;41.63
19783;BME280;10051;40.294;-3.754;2023-05-10T00:44:33;94488.28;;;21.56;41.63
19783;BME280;10051;40.294;-3.754;2023-05-10T00:46:59;94441.06;;;21.19;41.57
19783;BME280;10051;40.294;-3.754;2023-05-10T00:49:24;94493.44;;;21.49;41.79
19783;BME280;10051;40.294;-3.754;2023-05-10T00:51:50;94455.47;;;21.02;42.14
19783;BME280;10051;40.294;-3.754;2023-05-10T00:54:16;94311.22;;;19.62;43.23
19783;BME280;10051;40.294;-3.754;2023-05-10T00:56:42;94384.03;;;19.75;44.27
19783;BME280;10051;40.294;-3.754;2023-05-10T00:59:14;94353.97;;;19.41;44.62
19783;BME280;10051;40.294;-3.754;2023-05-10T01:01:42;94282.69;;;18.83;44.95
19783;BME280;10051;40.294;-3.754;2023-05-10T01:04:12;94485.31;;;20.05;45.38
19783;BME280;10051;40.294;-3.754;2023-05-10T01:06:42;94330.91;;;19.11;45.48
19783;BME280;10051;40.294;-3.754;2023-05-10T01:09:07;94238.13;;;18.58;45.02
19783;BME280;10051;40.294;-3.754;2023-05-10T01:11:38;94259.25;;;18.97;44.70
19783;BME280;10051;40.294;-3.754;2023-05-10T01:14:04;94446.50;;;20.20;44.57
19783;BME280;10051;40.294;-3.754;2023-05-10T01:16:35;94317.97;;;19.35;44.18
19783;BME280;10051;40.294;-3.754;2023-05-10T01:19:04;94359.81;;;19.80;43.86
19783;BME280;10051;40.294;-3.754;2023-05-10T01:30:20;94488.00;;;19.84;45.71
19783;BME280;10051;40.294;-3.754;2023-05-10T01:33:18;94488.91;;;19.67;46.13
19783;BME280;10051;40.294;-3.754;2023-05-10T01:35:54;94490.28;;;19.39;47.11
19783;BME280;10051;40.294;-3.754;2023-05-10T01:38:37;94430.09;;;19.17;46.88
19783;BME280;10051;40.294;-3.754;2023-05-10T01:41:24;94479.06;;;19.67;46.45
19783;BME280;10051;40.294;-3.754;2023-05-10T01:44:04;94439.69;;;19.30;46.55
19783;BME280;10051;40.294;-3.754;2023-05-10T01:46:37;94492.72;;;19.44;47.26
19783;BME280;10051;40.294;-3.754;2023-05-10T01:49:21;94462.44;;;19.49;46.74
19783;BME280;10051;40.294;-3.754;2023-05-10T01:51:52;94456.38;;;19.40;46.30
19783;BME280;10051;40.294;-3.754;2023-05-10T01:54:21;94432.53;;;19.01;47.70
19783;BME280;10051;40.294;-3.754;2023-05-10T01:56:52;94494.06;;;19.17;48.15
19783;BME280;10051;40.294;-3.754;2023-05-10T01:59:21;94474.75;;;18.90;48.93
19783;BME280;10051;40.294;-3.754;2023-05-10T02:01:48;94460.53;;;18.86;48.66
19783;BME280;10051;40.294;-3.754;2023-05-10T02:04:16;94422.34;;;18.52;49.30
19783;BME280;10051;40.294;-3.754;2023-05-10T02:06:43;94472.72;;;18.96;49.23
19783;BME280;10051;40.294;-3.754;2023-05-10T02:09:10;94479.47;;;19.14;48.81
19783;BME280;10051;40.294;-3.754;2023-05-10T02:11:42;94452.84;;;19.14;48.23
19783;BME280;10051;40.294;-3.754;2023-05-10T02:14:10;94446.66;;;19.01;48.36
19783;BME280;10051;40.294;-3.754;2023-05-10T02:16:37;94483.66;;;18.94;49.20
19783;BME280;10051;40.294;-3.754;2023-05-10T02:19:05;94445.03;;;18.58;49.65
19783;BME280;10051;40.294;-3.754;2023-05-10T02:21:31;94485.94;;;18.83;49.69
19783;BME280;10051;40.294;-3.754;2023-05-10T02:23:59;94480.41;;;18.58;50.13
19783;BME280;10051;40.294;-3.754;2023-05-10T02:26:26;94485.38;;;18.69;50.13
19783;BME280;10051;40.294;-3.754;2023-05-10T02:28:53;94469.75;;;18.67;49.99
19783;BME280;10051;40.294;-3.754;2023-05-10T02:31:22;94458.81;;;18.30;50.91
19783;BME280;10051;40.294;-3.754;2023-05-10T02:33:48;94446.22;;;18.09;50.73
19783;BME280;10051;40.294;-3.754;2023-05-10T02:36:19;94476.06;;;18.24;51.15
19783;BME280;10051;40.294;-3.754;2023-05-10T02:38:45;94469.66;;;18.16;51.28
19783;BME280;10051;40.294;-3.754;2023-05-10T02:41:13;94444.41;;;17.75;51.96
19783;BME280;10051;40.294;-3.754;2023-05-10T02:43:39;94453.03;;;17.63;52.50
19783;BME280;10051;40.294;-3.754;2023-05-10T02:46:06;94459.47;;;17.44;52.89
19783;BME280;10051;40.294;-3.754;2023-05-10T02:48:34;94419.47;;;17.23;52.78
19783;BME280;10051;40.294;-3.754;2023-05-10T02:51:04;94474.19;;;17.42;53.26
19783;BME280;10051;40.294;-3.754;2023-05-10T02:53:31;94458.72;;;17.35;53.24
19783;BME280;10051;40.294;-3.754;2023-05-10T02:56:05;94432.44;;;17.07;53.48
19783;BME280;10051;40.294;-3.754;2023-05-10T02:58:32;94420.72;;;17.08;53.26
19783;BME280;10051;40.294;-3.754;2023-05-10T03:00:59;94481.19;;;17.46;53.20
19783;BME280;10051;40.294;-3.754;2023-05-10T03:03:25;94445.88;;;17.37;52.86
19783;BME280;10051;40.294;-3.754;2023-05-10T03:05:54;94420.41;;;17.36;52.64
19783;BME280;10051;40.294;-3.754;2023-05-10T03:08:22;94473.34;;;17.76;52.10
19783;BME280;10051;40.294;-3.754;2023-05-10T03:14:13;94464.63;;;17.49;52.39
19783;BME280;10051;40.294;-3.754;2023-05-10T03:16:46;94454.66;;;17.29;52.37
19783;BME280;10051;40.294;-3.754;2023-05-10T03:19:27;94471.03;;;17.48;52.19
19783;BME280;10051;40.294;-3.754;2023-05-10T03:22:03;94479.78;;;17.58;51.79
19783;BME280;10051;40.294;-3.754;2023-05-10T03:24:34;94456.69;;;17.32;51.59
19783;BME280;10051;40.294;-3.754;2023-05-10T03:27:04;94447.59;;;17.33;51.53
19783;BME280;10051;40.294;-3.754;2023-05-10T03:29:31;94464.28;;;17.77;50.57
19783;BME280;10051;40.294;-3.754;2023-05-10T03:31:58;94444.91;;;17.68;50.48
19783;BME280;10051;40.294;-3.754;2023-05-10T03:34:25;94402.44;;;17.33;50.59
19783;BME280;10051;40.294;-3.754;2023-05-10T03:36:53;94422.25;;;17.44;50.62
19783;BME280;10051;40.294;-3.754;2023-05-10T03:39:18;94431.31;;;17.52;50.34
19783;BME280;10051;40.294;-3.754;2023-05-10T03:41:44;94477.41;;;17.82;50.13
19783;BME280;10051;40.294;-3.754;2023-05-10T03:44:10;94475.66;;;17.95;49.79
19783;BME280;10051;40.294;-3.754;2023-05-10T03:46:38;94486.75;;;18.06;49.42
19783;BME280;10051;40.294;-3.754;2023-05-10T03:49:07;94477.47;;;18.21;48.67
19783;BME280;10051;40.294;-3.754;2023-05-10T03:51:35;94421.78;;;18.07;47.77
19783;BME280;10051;40.294;-3.754;2023-05-10T03:54:01;94453.66;;;18.25;47.64
19783;BME280;10051;40.294;-3.754;2023-05-10T03:56:26;94474.88;;;18.42;47.42
19783;BME280;10051;40.294;-3.754;2023-05-10T03:58:52;94484.56;;;18.47;47.47
19783;BME280;10051;40.294;-3.754;2023-05-10T04:01:18;94470.09;;;18.27;47.53
19783;BME280;10051;40.294;-3.754;2023-05-10T04:03:49;94329.41;;;17.30;47.53
19783;BME280;10051;40.294;-3.754;2023-05-10T04:06:14;94432.94;;;17.92;47.60
19783;BME280;10051;40.294;-3.754;2023-05-10T04:08:40;94414.50;;;17.87;47.33
19783;BME280;10051;40.294;-3.754;2023-05-10T04:11:10;94377.53;;;17.55;47.37
19783;BME280;10051;40.294;-3.754;2023-05-10T04:13:36;94429.50;;;18.00;46.94
19783;BME280;10051;40.294;-3.754;2023-05-10T04:16:04;94311.78;;;17.26;46.78
19783;BME280;10051;40.294;-3.754;2023-05-10T04:18:30;94304.13;;;17.24;46.70
19783;BME280;10051;40.294;-3.754;2023-05-10T04:20:57;94316.97;;;17.13;47.36
19783;BME280;10051;40.294;-3.754;2023-05-10T04:23:23;94372.56;;;17.36;47.38
19783;BME280;10051;40.294;-3.754;2023-05-10T04:25:48;94430.97;;;17.71;47.73
19783;BME280;10051;40.294;-3.754;2023-05-10T04:28:14;94270.91;;;16.74;47.40
19783;BME280;10051;40.294;-3.754;2023-05-10T04:30:39;94476.41;;;17.96;47.49
19783;BME280;10051;40.294;-3.754;2023-05-10T04:33:05;94329.63;;;16.81;47.86
19783;BME280;10051;40.294;-3.754;2023-05-10T04:35:31;94499.59;;;18.04;48.00
19783;BME280;10051;40.294;-3.754;2023-05-10T04:37:57;94327.13;;;16.93;47.88
19783;BME280;10051;40.294;-3.754;2023-05-10T04:40:22;94305.25;;;16.88;47.53
19783;BME280;10051;40.294;-3.754;2023-05-10T04:42:48;94330.72;;;17.06;47.43
19783;BME280;10051;40.294;-3.754;2023-05-10T04:45:14;94428.94;;;17.68;47.67
19783;BME280;10051;40.294;-3.754;2023-05-10T04:47:42;94349.31;;;17.15;47.27
19783;BME280;10051;40.294;-3.754;2023-05-10T04:50:08;94434.75;;;17.61;47.61
19783;BME280;10051;40.294;-3.754;2023-05-10T04:52:34;94295.44;;;16.71;47.34
19783;BME280;10051;40.294;-3.754;2023-05-10T04:54:59;94300.44;;;16.55;48.17
19783;BME280;10051;40.294;-3.754;2023-05-10T04:57:25;94515.84;;;18.11;47.54
19783;BME280;10051;40.294;-3.754;2023-05-10T04:59:51;94382.91;;;17.29;47.64
19783;BME280;10051;40.294;-3.754;2023-05-10T05:02:19;94385.72;;;17.23;47.70
19783;BME280;10051;40.294;-3.754;2023-05-10T05:04:45;94329.94;;;16.71;47.75
19783;BME280;10051;40.294;-3.754;2023-05-10T05:07:15;94336.03;;;16.80;47.53
19783;BME280;10051;40.294;-3.754;2023-05-10T05:09:41;94545.13;;;17.94;48.04
19783;BME280;10051;40.294;-3.754;2023-05-10T05:12:07;94544.03;;;17.95;48.03
19783;BME280;10051;40.294;-3.754;2023-05-10T05:14:35;94535.91;;;18.00;47.86
19783;BME280;10051;40.294;-3.754;2023-05-10T05:17:00;94537.13;;;17.94;48.14
19783;BME280;10051;40.294;-3.754;2023-05-10T05:19:26;94532.78;;;17.72;48.61
19783;BME280;10051;40.294;-3.754;2023-05-10T05:21:52;94528.75;;;17.65;48.54
19783;BME280;10051;40.294;-3.754;2023-05-10T05:24:18;94547.66;;;17.81;48.46
19783;BME280;10051;40.294;-3.754;2023-05-10T05:26:43;94531.06;;;17.67;48.22
19783;BME280;10051;40.294;-3.754;2023-05-10T05:29:11;94555.13;;;17.97;47.97
19783;BME280;10051;40.294;-3.754;2023-05-10T05:31:37;94522.47;;;17.52;48.52
19783;BME280;10051;40.294;-3.754;2023-05-10T05:34:03;94548.59;;;17.68;48.47
19783;BME280;10051;40.294;-3.754;2023-05-10T05:36:28;94557.19;;;17.82;48.56
19783;BME280;10051;40.294;-3.754;2023-05-10T05:38:54;94531.22;;;17.79;47.98
19783;BME280;10051;40.294;-3.754;2023-05-10T05:41:20;94519.66;;;17.75;47.99
19783;BME280;10051;40.294;-3.754;2023-05-10T05:43:46;94547.00;;;18.11;47.40
19783;BME280;10051;40.294;-3.754;2023-05-10T05:46:12;94558.91;;;19.21;45.63
19783;BME280;10051;40.294;-3.754;2023-05-10T05:48:37;94521.41;;;20.48;41.48
19783;BME280;10051;40.294;-3.754;2023-05-10T05:51:03;94556.78;;;20.58;41.36
19783;BME280;10051;40.294;-3.754;2023-05-10T05:53:29;94552.75;;;19.29;43.79
19783;BME280;10051;40.294;-3.754;2023-05-10T05:55:56;94549.31;;;18.30;46.24
19783;BME280;10051;40.294;-3.754;2023-05-10T05:58:23;94578.13;;;17.93;47.50
19783;BME280;10051;40.294;-3.754;2023-05-10T06:00:49;94523.56;;;17.16;48.76
19783;BME280;10051;40.294;-3.754;2023-05-10T06:03:18;94582.69;;;17.31;49.84
19783;BME280;10051;40.294;-3.754;2023-05-10T06:05:44;94573.13;;;17.30;49.55
19783;BME280;10051;40.294;-3.754;2023-05-10T06:08:10;94552.16;;;17.28;49.47
19783;BME280;10051;40.294;-3.754;2023-05-10T06:10:35;94574.72;;;17.57;48.69
19783;BME280;10051;40.294;-3.754;2023-05-10T06:13:01;94572.53;;;17.59;48.85
19783;BME280;10051;40.294;-3.754;2023-05-10T06:15:27;94591.47;;;17.75;48.49
19783;BME280;10051;40.294;-3.754;2023-05-10T06:17:53;94574.38;;;17.67;48.44
19783;BME280;10051;40.294;-3.754;2023-05-10T06:20:21;94591.75;;;17.65;48.67
19783;BME280;10051;40.294;-3.754;2023-05-10T06:22:47;94571.13;;;17.53;48.78
19783;BME280;10051;40.294;-3.754;2023-05-10T06:25:13;94591.13;;;17.77;48.12
19783;BME280;10051;40.294;-3.754;2023-05-10T06:27:39;94596.00;;;17.83;48.04
19783;BME280;10051;40.294;-3.754;2023-05-10T06:30:05;94601.47;;;17.87;47.84
19783;BME280;10051;40.294;-3.754;2023-05-10T06:32:31;94597.38;;;17.54;49.07
19783;BME280;10051;40.294;-3.754;2023-05-10T06:34:57;94602.56;;;17.60;49.02
19783;BME280;10051;40.294;-3.754;2023-05-10T06:37:22;94531.72;;;17.29;48.64
19783;BME280;10051;40.294;-3.754;2023-05-10T06:39:48;94593.78;;;17.77;48.29
19783;BME280;10051;40.294;-3.754;2023-05-10T06:42:13;94574.09;;;17.78;47.93
19783;BME280;10051;40.294;-3.754;2023-05-10T06:44:39;94573.63;;;18.02;47.06
19783;BME280;10051;40.294;-3.754;2023-05-10T06:47:05;94576.72;;;17.95;47.32
19783;BME280;10051;40.294;-3.754;2023-05-10T06:49:30;94605.88;;;18.01;47.63
19783;BME280;10051;40.294;-3.754;2023-05-10T06:51:56;94567.03;;;17.82;47.48
19783;BME280;10051;40.294;-3.754;2023-05-10T06:54:21;94576.44;;;17.79;48.12
19783;BME280;10051;40.294;-3.754;2023-05-10T06:56:48;94600.03;;;17.90;48.14
19783;BME280;10051;40.294;-3.754;2023-05-10T06:59:13;94570.81;;;17.72;48.09
19783;BME280;10051;40.294;-3.754;2023-05-10T07:01:40;94601.88;;;18.33;47.16
19783;BME280;10051;40.294;-3.754;2023-05-10T07:04:12;94564.63;;;18.42;46.25
19783;BME280;10051;40.294;-3.754;2023-05-10T07:06:38;94594.03;;;18.46;46.54
19783;BME280;10051;40.294;-3.754;2023-05-10T07:09:03;94612.81;;;18.58;46.39
19783;BME280;10051;40.294;-3.754;2023-05-10T07:11:29;94565.63;;;18.02;46.87
19783;BME280;10051;40.294;-3.754;2023-05-10T07:13:54;94527.78;;;17.70;46.57
19783;BME280;10051;40.294;-3.754;2023-05-10T07:16:20;94577.66;;;18.17;46.46
19783;BME280;10051;40.294;-3.754;2023-05-10T07:18:46;94590.03;;;18.22;47.00
19783;BME280;10051;40.294;-3.754;2023-05-10T07:21:12;94590.31;;;18.38;46.29
19783;BME280;10051;40.294;-3.754;2023-05-10T07:23:37;94600.50;;;18.36;46.26
19783;BME280;10051;40.294;-3.754;2023-05-10T07:26:03;94599.81;;;18.48;45.63
19783;BME280;10051;40.294;-3.754;2023-05-10T07:28:28;94622.47;;;18.71;45.56
19783;BME280;10051;40.294;-3.754;2023-05-10T07:30:54;94621.44;;;19.02;44.96
19783;BME280;10051;40.294;-3.754;2023-05-10T07:33:20;94631.34;;;19.23;44.37
19783;BME280;10051;40.294;-3.754;2023-05-10T07:35:46;94596.34;;;19.04;45.11
19783;BME280;10051;40.294;-3.754;2023-05-10T07:38:11;94626.13;;;19.36;44.32
19783;BME280;10051;40.294;-3.754;2023-05-10T07:40:39;94612.31;;;19.34;43.98
19783;BME280;10051;40.294;-3.754;2023-05-10T07:43:04;94626.13;;;19.78;42.69
19783;BME280;10051;40.294;-3.754;2023-05-10T07:45:30;94602.00;;;19.53;42.82
19783;BME280;10051;40.294;-3.754;2023-05-10T07:47:56;94624.00;;;19.50;43.29
19783;BME280;10051;40.294;-3.754;2023-05-10T07:50:21;94617.81;;;19.58;42.78
19783;BME280;10051;40.294;-3.754;2023-05-10T07:52:47;94626.13;;;19.36;43.47
19783;BME280;10051;40.294;-3.754;2023-05-10T07:55:17;94613.56;;;19.06;43.26
19783;BME280;10051;40.294;-3.754;2023-05-10T07:57:43;94606.38;;;19.07;43.57
19783;BME280;10051;40.294;-3.754;2023-05-10T08:00:12;94634.53;;;19.16;43.44
19783;BME280;10051;40.294;-3.754;2023-05-10T08:02:38;94575.31;;;18.72;43.64
19783;BME280;10051;40.294;-3.754;2023-05-10T08:05:04;94590.59;;;18.84;43.62
19783;BME280;10051;40.294;-3.754;2023-05-10T08:07:30;94598.97;;;19.12;42.97
19783;BME280;10051;40.294;-3.754;2023-05-10T08:09:58;94603.94;;;19.44;42.10
19783;BME280;10051;40.294;-3.754;2023-05-10T08:12:27;94594.00;;;19.32;42.91
19783;BME280;10051;40.294;-3.754;2023-05-10T08:14:53;94613.50;;;19.45;42.51
19783;BME280;10051;40.294;-3.754;2023-05-10T08:17:18;94614.44;;;19.49;42.20
19783;BME280;10051;40.294;-3.754;2023-05-10T08:19:46;94600.38;;;19.40;41.66
19783;BME280;10051;40.294;-3.754;2023-05-10T08:22:12;94640.94;;;19.97;41.11
19783;BME280;10051;40.294;-3.754;2023-05-10T08:24:37;94632.19;;;19.87;40.87
19783;BME280;10051;40.294;-3.754;2023-05-10T08:27:08;94591.72;;;19.43;41.47
19783;BME280;10051;40.294;-3.754;2023-05-10T08:29:33;94609.56;;;19.51;41.10
19783;BME280;10051;40.294;-3.754;2023-05-10T08:31:59;94547.13;;;19.31;40.87
19783;BME280;10051;40.294;-3.754;2023-05-10T08:34:26;94602.38;;;19.85;40.87
19783;BME280;10051;40.294;-3.754;2023-05-10T08:36:52;94593.63;;;20.06;39.66
19783;BME280;10051;40.294;-3.754;2023-05-10T08:39:18;94626.97;;;20.12;40.53
19783;BME280;10051;40.294;-3.754;2023-05-10T08:41:45;94626.97;;;20.12;40.52
19783;BME280;10051;40.294;-3.754;2023-05-10T08:44:12;94589.78;;;19.95;40.11
19783;BME280;10051;40.294;-3.754;2023-05-10T08:46:41;94568.81;;;19.84;40.24
19783;BME280;10051;40.294;-3.754;2023-05-10T08:49:11;94578.28;;;20.15;39.98
19783;BME280;10051;40.294;-3.754;2023-05-10T08:51:44;94579.38;;;20.02;39.82
19783;BME280;10051;40.294;-3.754;2023-05-10T08:54:12;94593.84;;;20.13;39.88
19783;BME280;10051;40.294;-3.754;2023-05-10T08:56:38;94596.25;;;20.27;39.35
19783;BME280;10051;40.294;-3.754;2023-05-10T08:59:04;94621.91;;;20.19;39.60
19783;BME280;10051;40.294;-3.754;2023-05-10T09:01:31;94480.00;;;19.08;40.10
19783;BME280;10051;40.294;-3.754;2023-05-10T09:03:58;94613.44;;;20.17;39.81
19783;BME280;10051;40.294;-3.754;2023-05-10T09:06:24;94595.69;;;20.34;39.57
19783;BME280;10051;40.294;-3.754;2023-05-10T09:08:50;94620.38;;;20.64;39.09
19783;BME280;10051;40.294;-3.754;2023-05-10T09:11:17;94542.09;;;20.39;37.77
19783;BME280;10051;40.294;-3.754;2023-05-10T09:13:43;94553.22;;;20.66;37.74
19783;BME280;10051;40.294;-3.754;2023-05-10T09:16:09;94557.34;;;20.63;38.35
19783;BME280;10051;40.294;-3.754;2023-05-10T09:18:34;94583.78;;;20.90;37.80
19783;BME280;10051;40.294;-3.754;2023-05-10T09:21:00;94537.53;;;20.64;37.19
19783;BME280;10051;40.294;-3.754;2023-05-10T09:23:26;94575.06;;;21.18;38.00
19783;BME280;10051;40.294;-3.754;2023-05-10T09:26:06;94582.22;;;21.14;37.75
19783;BME280;10051;40.294;-3.754;2023-05-10T09:28:51;94596.53;;;21.59;36.18
19783;BME280;10051;40.294;-3.754;2023-05-10T09:31:17;94600.88;;;21.63;36.74
19783;BME280;10051;40.294;-3.754;2023-05-10T09:33:47;94590.91;;;21.76;35.71
19783;BME280;10051;40.294;-3.754;2023-05-10T09:36:13;94604.56;;;21.99;35.83
19783;BME280;10051;40.294;-3.754;2023-05-10T09:38:49;94584.81;;;22.04;34.61
19783;BME280;10051;40.294;-3.754;2023-05-10T09:41:22;94582.16;;;22.20;34.16
19783;BME280;10051;40.294;-3.754;2023-05-10T09:43:48;94593.41;;;22.42;33.84
19783;BME280;10051;40.294;-3.754;2023-05-10T09:46:15;94603.50;;;22.33;33.81
19783;BME280;10051;40.294;-3.754;2023-05-10T09:48:43;94601.59;;;22.17;34.86
19783;BME280;10051;40.294;-3.754;2023-05-10T09:51:09;94592.44;;;22.18;34.01
19783;BME280;10051;40.294;-3.754;2023-05-10T09:53:35;94563.94;;;22.26;33.30
19783;BME280;10051;40.294;-3.754;2023-05-10T09:56:01;94599.53;;;22.71;33.67
19783;BME280;10051;40.294;-3.754;2023-05-10T09:58:26;94607.84;;;22.66;33.11
19783;BME280;10051;40.294;-3.754;2023-05-10T10:00:52;94577.97;;;22.07;34.61
19783;BME280;10051;40.294;-3.754;2023-05-10T10:03:20;94587.72;;;21.46;34.81
19783;BME280;10051;40.294;-3.754;2023-05-10T10:05:47;94565.88;;;21.56;34.53
19783;BME280;10051;40.294;-3.754;2023-05-10T10:08:14;94603.66;;;22.24;33.53
19783;BME280;10051;40.294;-3.754;2023-05-10T10:10:40;94548.22;;;21.80;34.06
19783;BME280;10051;40.294;-3.754;2023-05-10T10:13:06;94581.09;;;22.09;33.05
19783;BME280;10051;40.294;-3.754;2023-05-10T10:15:33;94605.22;;;22.53;32.49
19783;BME280;10051;40.294;-3.754;2023-05-10T10:18:02;94541.41;;;22.43;32.06
19783;BME280;10051;40.294;-3.754;2023-05-10T10:20:29;94579.72;;;22.76;32.26
19783;BME280;10051;40.294;-3.754;2023-05-10T10:22:57;94606.53;;;22.92;31.96
19783;BME280;10051;40.294;-3.754;2023-05-10T10:25:23;94568.06;;;22.68;31.67
19783;BME280;10051;40.294;-3.754;2023-05-10T10:33:01;94593.03;;;23.04;31.45
19783;BME280;10051;40.294;-3.754;2023-05-10T10:35:33;94564.25;;;23.01;31.33
19783;BME280;10051;40.294;-3.754;2023-05-10T10:38:00;94568.13;;;23.03;30.96
19783;BME280;10051;40.294;-3.754;2023-05-10T10:40:33;94540.63;;;22.91;30.92
19783;BME280;10051;40.294;-3.754;2023-05-10T10:46:14;94572.94;;;23.30;30.75
19783;BME280;10051;40.294;-3.754;2023-05-10T10:48:50;94519.09;;;23.03;30.97
19783;BME280;10051;40.294;-3.754;2023-05-10T10:51:37;94523.47;;;23.11;30.34
19783;BME280;10051;40.294;-3.754;2023-05-10T10:54:09;94565.34;;;23.16;30.35
19783;BME280;10051;40.294;-3.754;2023-05-10T10:56:35;94515.50;;;23.15;29.55
19783;BME280;10051;40.294;-3.754;2023-05-10T10:59:01;94553.94;;;23.55;29.65
19783;BME280;10051;40.294;-3.754;2023-05-10T11:01:33;94547.50;;;23.40;29.26
19783;BME280;10051;40.294;-3.754;2023-05-10T11:06:32;94532.31;;;23.48;29.41
19783;BME280;10051;40.294;-3.754;2023-05-10T11:08:59;94544.41;;;23.77;28.48
19783;BME280;10051;40.294;-3.754;2023-05-10T11:11:27;94513.09;;;23.45;28.49
19783;BME280;10051;40.294;-3.754;2023-05-10T11:14:03;94518.63;;;23.53;28.65
19783;BME280;10051;40.294;-3.754;2023-05-10T11:16:43;94509.28;;;23.66;27.73
19783;BME280;10051;40.294;-3.754;2023-05-10T11:19:13;94520.44;;;23.68;27.60
19783;BME280;10051;40.294;-3.754;2023-05-10T11:22:11;94532.88;;;23.96;28.76
19783;BME280;10051;40.294;-3.754;2023-05-10T11:24:39;94524.88;;;24.19;28.46
19783;BME280;10051;40.294;-3.754;2023-05-10T11:27:05;94528.16;;;24.32;27.20
19783;BME280;10051;40.294;-3.754;2023-05-10T11:29:31;94514.72;;;24.32;26.79
19783;BME280;10051;40.294;-3.754;2023-05-10T11:31:58;94501.72;;;24.34;26.48
19783;BME280;10051;40.294;-3.754;2023-05-10T11:34:28;94501.53;;;24.24;26.67
19783;BME280;10051;40.294;-3.754;2023-05-10T11:36:56;94498.34;;;24.18;26.99
19783;BME280;10051;40.294;-3.754;2023-05-10T11:39:28;94489.75;;;24.09;26.81
19783;BME280;10051;40.294;-3.754;2023-05-10T11:41:58;94489.28;;;24.26;27.51
19783;BME280;10051;40.294;-3.754;2023-05-10T11:44:29;94502.22;;;24.67;26.86
19783;BME280;10051;40.294;-3.754;2023-05-10T11:46:58;94473.97;;;24.77;26.91
19783;BME280;10051;40.294;-3.754;2023-05-10T11:49:25;94472.22;;;24.88;25.72
19783;BME280;10051;40.294;-3.754;2023-05-10T11:52:04;94488.53;;;25.03;25.74
19783;BME280;10051;40.294;-3.754;2023-05-10T11:54:30;94477.44;;;24.77;25.72
19783;BME280;10051;40.294;-3.754;2023-05-10T11:56:56;94437.16;;;24.31;26.00
19783;BME280;10051;40.294;-3.754;2023-05-10T11:59:21;94444.47;;;24.57;26.60
19783;BME280;10051;40.294;-3.754;2023-05-10T12:01:48;94420.94;;;24.74;25.97
19783;BME280;10051;40.294;-3.754;2023-05-10T12:04:16;94449.00;;;25.07;26.21
19783;BME280;10051;40.294;-3.754;2023-05-10T12:06:42;94458.19;;;25.33;25.33
19783;BME280;10051;40.294;-3.754;2023-05-10T12:09:08;94441.72;;;25.38;25.60
19783;BME280;10051;40.294;-3.754;2023-05-10T12:11:39;94453.38;;;25.46;25.23
19783;BME280;10051;40.294;-3.754;2023-05-10T12:14:05;94435.38;;;25.23;25.27
19783;BME280;10051;40.294;-3.754;2023-05-10T12:16:32;94439.91;;;25.15;24.56
19783;BME280;10051;40.294;-3.754;2023-05-10T12:18:59;94433.19;;;25.02;24.82
19783;BME280;10051;40.294;-3.754;2023-05-10T12:21:28;94397.88;;;24.73;24.78
19783;BME280;10051;40.294;-3.754;2023-05-10T12:23:56;94402.28;;;24.61;25.33
19783;BME280;10051;40.294;-3.754;2023-05-10T12:26:24;94426.00;;;24.79;25.82
19783;BME280;10051;40.294;-3.754;2023-05-10T12:28:53;94433.97;;;25.02;25.35
19783;BME280;10051;40.294;-3.754;2023-05-10T12:31:18;94389.38;;;24.44;25.37
19783;BME280;10051;40.294;-3.754;2023-05-10T12:33:44;94423.59;;;24.47;26.52
19783;BME280;10051;40.294;-3.754;2023-05-10T12:36:13;94420.16;;;24.23;26.30
19783;BME280;10051;40.294;-3.754;2023-05-10T12:38:41;94418.41;;;24.34;26.10
19783;BME280;10051;40.294;-3.754;2023-05-10T12:41:16;94404.88;;;24.27;26.00
19783;BME280;10051;40.294;-3.754;2023-05-10T12:43:42;94425.03;;;24.41;25.86
19783;BME280;10051;40.294;-3.754;2023-05-10T12:46:09;94371.75;;;24.19;25.86
19783;BME280;10051;40.294;-3.754;2023-05-10T12:48:36;94417.28;;;24.62;25.59
19783;BME280;10051;40.294;-3.754;2023-05-10T12:51:04;94407.06;;;24.72;25.67
19783;BME280;10051;40.294;-3.754;2023-05-10T12:53:31;94410.66;;;24.56;25.62
19783;BME280;10051;40.294;-3.754;2023-05-10T12:55:57;94399.50;;;24.81;25.77
19783;BME280;10051;40.294;-3.754;2023-05-10T12:58:23;94412.25;;;25.15;25.47
19783;BME280;10051;40.294;-3.754;2023-05-10T13:00:50;94356.41;;;25.04;25.07
19783;BME280;10051;40.294;-3.754;2023-05-10T13:03:19;94379.44;;;25.39;24.83
19783;BME280;10051;40.294;-3.754;2023-05-10T13:05:44;94379.16;;;25.48;24.77
19783;BME280;10051;40.294;-3.754;2023-05-10T13:08:17;94352.16;;;25.41;23.96
19783;BME280;10051;40.294;-3.754;2023-05-10T13:10:43;94377.91;;;25.42;24.06
19783;BME280;10051;40.294;-3.754;2023-05-10T13:13:12;94364.75;;;25.30;24.14
19783;BME280;10051;40.294;-3.754;2023-05-10T13:15:37;94350.09;;;25.27;24.20